createdAt,value
2017-02-19T00:00:14.257Z,17.97
2017-02-19T00:01:13.775Z,17.97
2017-02-19T00:02:12.933Z,17.97
2017-02-19T00:03:14.510Z,17.97
2017-02-19T00:04:13.191Z,18.02
2017-02-19T00:05:11.893Z,17.95
2017-02-19T00:06:12.150Z,17.95
2017-02-19T00:07:14.516Z,17.95
2017-02-19T00:08:14.592Z,17.94
2017-02-19T00:09:13.216Z,17.94
2017-02-19T00:10:13.864Z,17.94
2017-02-19T00:11:13.868Z,17.94
2017-02-19T00:12:14.680Z,17.93
2017-02-19T00:13:13.505Z,17.92
2017-02-19T00:14:14.200Z,17.94
2017-02-19T00:15:12.964Z,17.94
2017-02-19T00:16:13.314Z,17.93
2017-02-19T00:17:14.641Z,17.93
2017-02-19T00:18:12.689Z,17.94
2017-02-19T00:19:12.472Z,17.94
2017-02-19T00:20:13.259Z,17.93
2017-02-19T00:21:13.408Z,17.94
2017-02-19T00:22:12.368Z,17.93
2017-02-19T00:23:14.056Z,17.93
2017-02-19T00:24:12.956Z,17.93
2017-02-19T00:25:15.046Z,17.93
2017-02-19T00:26:14.558Z,17.92
2017-02-19T00:27:14.591Z,17.93
2017-02-19T00:28:13.080Z,18.00
2017-02-19T00:29:13.819Z,18.09
2017-02-19T00:30:13.732Z,17.97
2017-02-19T00:31:15.045Z,17.95
2017-02-19T00:32:14.863Z,17.94
2017-02-19T00:33:13.777Z,17.94
2017-02-19T00:34:12.952Z,17.93
2017-02-19T00:35:12.827Z,17.93
2017-02-19T00:36:12.611Z,17.94
2017-02-19T00:37:13.745Z,17.92
2017-02-19T00:38:12.283Z,17.92
2017-02-19T00:39:13.807Z,17.92
2017-02-19T00:40:13.530Z,17.93
2017-02-19T00:41:11.477Z,17.92
2017-02-19T00:42:14.919Z,17.91
2017-02-19T00:43:11.813Z,17.91
2017-02-19T00:44:13.472Z,17.92
2017-02-19T00:45:12.193Z,17.93
2017-02-19T00:46:13.735Z,17.93
2017-02-19T00:47:12.864Z,17.92
2017-02-19T00:48:14.385Z,17.92
2017-02-19T00:49:13.025Z,17.92
2017-02-19T00:50:14.612Z,17.92
2017-02-19T00:51:12.156Z,17.95
2017-02-19T00:52:12.090Z,17.92
2017-02-19T00:53:12.692Z,17.92
2017-02-19T00:54:13.357Z,17.92
2017-02-19T00:55:12.909Z,17.91
2017-02-19T00:56:13.607Z,17.91
2017-02-19T00:57:13.362Z,17.92
2017-02-19T00:58:14.081Z,17.90
2017-02-19T00:59:14.658Z,17.90
2017-02-19T01:00:12.225Z,17.90
2017-02-19T01:01:12.861Z,17.89
2017-02-19T01:02:13.284Z,17.90
2017-02-19T01:03:13.079Z,17.89
2017-02-19T01:04:14.226Z,17.89
2017-02-19T01:05:14.684Z,17.89
2017-02-19T01:06:12.367Z,17.88
2017-02-19T01:07:14.020Z,17.87
2017-02-19T01:08:13.684Z,17.87
2017-02-19T01:09:13.506Z,17.88
2017-02-19T01:10:13.773Z,17.87
2017-02-19T01:11:12.916Z,17.89
2017-02-19T01:12:14.756Z,17.88
2017-02-19T01:13:13.000Z,17.88
2017-02-19T01:14:13.243Z,17.87
2017-02-19T01:15:12.814Z,17.87
2017-02-19T01:16:13.505Z,17.88
2017-02-19T01:17:12.901Z,17.88
2017-02-19T01:18:12.534Z,17.88
2017-02-19T01:19:13.136Z,17.95
2017-02-19T01:20:13.972Z,17.86
2017-02-19T01:21:13.664Z,17.87
2017-02-19T01:22:14.372Z,17.87
2017-02-19T01:23:14.184Z,17.87
2017-02-19T01:24:13.192Z,17.87
2017-02-19T01:25:12.799Z,17.87
2017-02-19T01:26:13.863Z,17.87
2017-02-19T01:27:15.743Z,17.87
2017-02-19T01:28:13.648Z,17.87
2017-02-19T01:29:12.467Z,17.86
2017-02-19T01:30:13.938Z,17.87
2017-02-19T01:31:14.665Z,17.86
2017-02-19T01:32:13.349Z,17.87
2017-02-19T01:33:15.013Z,17.85
2017-02-19T01:34:14.270Z,17.87
2017-02-19T01:35:11.933Z,17.85
2017-02-19T01:36:11.124Z,18.38
2017-02-19T01:37:13.801Z,18.45
2017-02-19T01:38:14.462Z,18.46
2017-02-19T01:39:11.692Z,18.47
2017-02-19T01:40:11.578Z,18.49
2017-02-19T01:41:14.101Z,18.49
2017-02-19T01:42:13.436Z,17.95
2017-02-19T01:43:11.986Z,17.90
2017-02-19T01:44:13.611Z,17.87
2017-02-19T01:45:12.735Z,17.87
2017-02-19T01:46:13.469Z,17.86
2017-02-19T01:47:14.378Z,17.85
2017-02-19T01:48:13.871Z,17.85
2017-02-19T01:49:14.904Z,17.85
2017-02-19T01:50:14.097Z,17.93
2017-02-19T01:51:13.905Z,18.38
2017-02-19T01:52:14.299Z,18.43
2017-02-19T01:53:13.675Z,18.45
2017-02-19T01:54:13.217Z,18.46
2017-02-19T01:55:12.807Z,18.47
2017-02-19T01:56:12.644Z,18.47
2017-02-19T01:57:14.117Z,18.47
2017-02-19T01:58:12.637Z,18.47
2017-02-19T01:59:12.822Z,17.94
2017-02-19T02:00:13.871Z,17.91
2017-02-19T02:01:13.175Z,17.87
2017-02-19T02:02:13.093Z,17.85
2017-02-19T02:03:12.630Z,17.85
2017-02-19T02:04:12.873Z,17.85
2017-02-19T02:05:12.725Z,17.84
2017-02-19T02:06:12.585Z,17.84
2017-02-19T02:07:13.575Z,17.85
2017-02-19T02:08:14.974Z,17.85
2017-02-19T02:09:13.786Z,17.85
2017-02-19T02:10:13.532Z,17.85
2017-02-19T02:11:13.294Z,17.85
2017-02-19T02:12:12.941Z,17.85
2017-02-19T02:13:13.259Z,17.85
2017-02-19T02:14:14.324Z,17.85
2017-02-19T02:15:14.926Z,17.87
2017-02-19T02:16:12.960Z,17.85
2017-02-19T02:17:13.989Z,17.84
2017-02-19T02:18:13.994Z,17.85
2017-02-19T02:19:12.544Z,17.84
2017-02-19T02:20:14.443Z,17.84
2017-02-19T02:21:13.973Z,17.84
2017-02-19T02:22:12.066Z,17.84
2017-02-19T02:23:11.536Z,17.83
2017-02-19T02:24:12.950Z,17.83
2017-02-19T02:25:13.695Z,17.90
2017-02-19T02:26:12.804Z,17.83
2017-02-19T02:27:14.093Z,17.83
2017-02-19T02:28:13.086Z,17.83
2017-02-19T02:29:12.666Z,17.83
2017-02-19T02:30:12.307Z,17.83
2017-02-19T02:31:15.239Z,17.83
2017-02-19T02:32:12.469Z,17.83
2017-02-19T02:33:13.591Z,17.83
2017-02-19T02:34:14.369Z,17.83
2017-02-19T02:35:13.772Z,17.88
2017-02-19T02:36:15.273Z,17.82
2017-02-19T02:37:13.355Z,17.82
2017-02-19T02:38:13.623Z,17.83
2017-02-19T02:39:14.541Z,17.82
2017-02-19T02:40:12.650Z,17.83
2017-02-19T02:41:14.463Z,17.82
2017-02-19T02:42:13.546Z,17.83
2017-02-19T02:43:16.227Z,17.82
2017-02-19T02:44:13.553Z,17.82
2017-02-19T02:45:16.539Z,17.82
2017-02-19T02:46:12.692Z,17.82
2017-02-19T02:47:13.769Z,17.81
2017-02-19T02:48:12.703Z,17.81
2017-02-19T02:49:13.370Z,17.81
2017-02-19T02:50:13.977Z,17.81
2017-02-19T02:51:12.893Z,17.82
2017-02-19T02:52:14.359Z,17.81
2017-02-19T02:53:16.071Z,17.81
2017-02-19T02:54:12.385Z,17.82
2017-02-19T02:55:13.716Z,17.79
2017-02-19T02:56:13.510Z,17.80
2017-02-19T02:57:13.721Z,17.80
2017-02-19T02:58:12.774Z,17.80
2017-02-19T02:59:12.574Z,17.81
2017-02-19T03:00:12.712Z,17.80
2017-02-19T03:01:12.253Z,17.80
2017-02-19T03:02:13.718Z,17.83
2017-02-19T03:03:12.576Z,17.81
2017-02-19T03:04:12.514Z,17.81
2017-02-19T03:05:13.320Z,17.81
2017-02-19T03:06:13.360Z,17.84
2017-02-19T03:07:13.968Z,17.80
2017-02-19T03:08:13.809Z,17.80
2017-02-19T03:09:12.490Z,17.79
2017-02-19T03:10:13.803Z,17.79
2017-02-19T03:11:12.885Z,17.79
2017-02-19T03:12:14.191Z,17.78
2017-02-19T03:13:12.559Z,17.78
2017-02-19T03:14:12.830Z,17.78
2017-02-19T03:15:12.723Z,17.77
2017-02-19T03:16:13.372Z,17.78
2017-02-19T03:17:13.514Z,17.76
2017-02-19T03:18:14.304Z,17.77
2017-02-19T03:19:14.790Z,17.76
2017-02-19T03:20:12.188Z,17.76
2017-02-19T03:21:13.766Z,17.76
2017-02-19T03:22:13.822Z,17.81
2017-02-19T03:23:12.404Z,17.76
2017-02-19T03:24:13.043Z,17.76
2017-02-19T03:25:13.653Z,17.76
2017-02-19T03:26:13.382Z,17.76
2017-02-19T03:27:13.983Z,17.76
2017-02-19T03:28:13.048Z,17.76
2017-02-19T03:29:11.970Z,17.76
2017-02-19T03:30:14.690Z,17.76
2017-02-19T03:31:13.370Z,17.76
2017-02-19T03:32:14.359Z,17.75
2017-02-19T03:33:13.438Z,17.75
2017-02-19T03:34:13.066Z,17.76
2017-02-19T03:35:12.448Z,17.75
2017-02-19T03:36:13.689Z,17.81
2017-02-19T03:37:13.100Z,17.79
2017-02-19T03:38:10.940Z,18.28
2017-02-19T03:39:13.973Z,18.34
2017-02-19T03:40:13.572Z,18.04
2017-02-19T03:41:12.240Z,17.85
2017-02-19T03:42:14.289Z,17.78
2017-02-19T03:43:13.431Z,17.77
2017-02-19T03:44:10.982Z,17.76
2017-02-19T03:45:12.825Z,18.29
2017-02-19T03:46:13.444Z,18.33
2017-02-19T03:47:15.088Z,18.36
2017-02-19T03:48:12.716Z,18.36
2017-02-19T03:49:13.704Z,18.36
2017-02-19T03:50:13.667Z,18.02
2017-02-19T03:51:12.583Z,17.83
2017-02-19T03:52:12.266Z,17.79
2017-02-19T03:53:13.226Z,17.77
2017-02-19T03:54:13.323Z,17.76
2017-02-19T03:55:13.932Z,17.75
2017-02-19T03:56:09.998Z,17.74
2017-02-19T03:57:13.999Z,17.74
2017-02-19T03:58:12.590Z,17.74
2017-02-19T03:59:11.727Z,17.74
2017-02-19T04:00:14.005Z,17.73
2017-02-19T04:01:15.771Z,17.73
2017-02-19T04:02:14.886Z,17.73
2017-02-19T04:03:12.994Z,17.73
2017-02-19T04:04:13.837Z,17.73
2017-02-19T04:05:15.360Z,17.72
2017-02-19T04:06:14.017Z,17.73
2017-02-19T04:07:13.720Z,17.73
2017-02-19T04:08:12.447Z,17.73
2017-02-19T04:09:11.925Z,17.72
2017-02-19T04:10:12.484Z,17.73
2017-02-19T04:11:13.186Z,17.74
2017-02-19T04:12:14.456Z,17.73
2017-02-19T04:13:12.383Z,17.74
2017-02-19T04:14:13.840Z,17.72
2017-02-19T04:15:13.501Z,17.73
2017-02-19T04:16:13.147Z,17.72
2017-02-19T04:17:13.792Z,17.73
2017-02-19T04:18:13.008Z,17.73
2017-02-19T04:19:13.004Z,17.73
2017-02-19T04:20:14.701Z,17.73
2017-02-19T04:21:12.840Z,17.73
2017-02-19T04:22:13.233Z,17.72
2017-02-19T04:23:13.181Z,17.72
2017-02-19T04:24:12.870Z,17.72
2017-02-19T04:25:12.528Z,17.72
2017-02-19T04:26:15.032Z,17.72
2017-02-19T04:27:15.253Z,17.73
2017-02-19T04:28:13.293Z,17.72
2017-02-19T04:29:17.102Z,17.72
2017-02-19T04:30:12.611Z,17.72
2017-02-19T04:31:12.233Z,17.72
2017-02-19T04:32:13.052Z,17.72
2017-02-19T04:33:13.197Z,17.72
2017-02-19T04:34:14.129Z,17.73
2017-02-19T04:35:13.696Z,17.71
2017-02-19T04:36:15.359Z,17.71
2017-02-19T04:37:13.219Z,17.71
2017-02-19T04:38:13.285Z,17.72
2017-02-19T04:39:12.792Z,17.72
2017-02-19T04:40:11.389Z,17.72
2017-02-19T04:41:13.413Z,17.76
2017-02-19T04:42:14.860Z,17.72
2017-02-19T04:43:12.379Z,17.71
2017-02-19T04:44:13.395Z,17.71
2017-02-19T04:45:13.844Z,17.71
2017-02-19T04:46:12.440Z,17.72
2017-02-19T04:47:13.999Z,17.78
2017-02-19T04:48:12.433Z,17.71
2017-02-19T04:49:13.487Z,17.71
2017-02-19T04:50:12.986Z,17.71
2017-02-19T04:51:14.337Z,17.73
2017-02-19T04:52:13.056Z,17.72
2017-02-19T04:53:13.704Z,17.73
2017-02-19T04:54:13.337Z,17.72
2017-02-19T04:55:13.034Z,17.72
2017-02-19T04:56:13.177Z,17.71
2017-02-19T04:57:14.407Z,17.72
2017-02-19T04:58:14.939Z,17.72
2017-02-19T04:59:13.098Z,17.72
2017-02-19T05:00:13.819Z,17.72
2017-02-19T05:01:13.485Z,17.71
2017-02-19T05:02:12.186Z,17.71
2017-02-19T05:03:14.761Z,17.71
2017-02-19T05:04:12.413Z,17.71
2017-02-19T05:05:13.084Z,17.71
2017-02-19T05:06:13.031Z,17.70
2017-02-19T05:07:12.545Z,17.70
2017-02-19T05:08:13.169Z,17.71
2017-02-19T05:09:14.631Z,17.71
2017-02-19T05:10:13.377Z,17.70
2017-02-19T05:11:12.958Z,17.70
2017-02-19T05:12:14.180Z,17.70
2017-02-19T05:13:13.170Z,17.70
2017-02-19T05:14:12.755Z,17.70
2017-02-19T05:15:12.459Z,17.70
2017-02-19T05:16:13.855Z,17.69
2017-02-19T05:17:12.558Z,17.70
2017-02-19T05:18:13.264Z,17.70
2017-02-19T05:19:13.869Z,17.70
2017-02-19T05:20:13.295Z,17.70
2017-02-19T05:21:13.037Z,17.70
2017-02-19T05:22:14.813Z,17.70
2017-02-19T05:23:13.331Z,17.70
2017-02-19T05:24:12.658Z,17.73
2017-02-19T05:25:18.465Z,17.69
2017-02-19T05:26:14.630Z,17.69
2017-02-19T05:27:18.222Z,18.22
2017-02-19T05:28:12.817Z,18.26
2017-02-19T05:29:12.369Z,18.29
2017-02-19T05:30:13.567Z,18.31
2017-02-19T05:31:12.259Z,18.31
2017-02-19T05:32:13.243Z,18.31
2017-02-19T05:33:12.793Z,18.32
2017-02-19T05:34:14.427Z,17.81
2017-02-19T05:35:14.793Z,17.75
2017-02-19T05:36:12.518Z,17.72
2017-02-19T05:37:14.120Z,17.74
2017-02-19T05:38:13.775Z,17.70
2017-02-19T05:39:12.280Z,17.71
2017-02-19T05:40:13.018Z,17.70
2017-02-19T05:41:13.730Z,17.70
2017-02-19T05:42:13.369Z,17.70
2017-02-19T05:43:12.918Z,17.69
2017-02-19T05:44:14.079Z,17.69
2017-02-19T05:45:13.726Z,17.69
2017-02-19T05:46:10.827Z,17.67
2017-02-19T05:47:14.726Z,18.21
2017-02-19T05:48:13.485Z,18.27
2017-02-19T05:49:15.069Z,18.29
2017-02-19T05:50:12.610Z,18.30
2017-02-19T05:51:13.492Z,18.31
2017-02-19T05:52:13.194Z,18.31
2017-02-19T05:53:13.246Z,17.95
2017-02-19T05:54:13.821Z,17.78
2017-02-19T05:55:12.586Z,17.74
2017-02-19T05:56:12.220Z,17.71
2017-02-19T05:57:14.952Z,17.69
2017-02-19T05:58:12.588Z,17.69
2017-02-19T05:59:13.179Z,17.68
2017-02-19T06:00:13.238Z,17.69
2017-02-19T06:01:13.086Z,17.68
2017-02-19T06:02:16.312Z,17.67
2017-02-19T06:03:13.300Z,17.68
2017-02-19T06:04:14.973Z,17.66
2017-02-19T06:05:12.549Z,17.67
2017-02-19T06:06:14.097Z,17.68
2017-02-19T06:07:13.121Z,17.67
2017-02-19T06:08:12.920Z,17.67
2017-02-19T06:09:14.496Z,17.66
2017-02-19T06:10:14.212Z,17.67
2017-02-19T06:11:12.781Z,17.67
2017-02-19T06:12:13.768Z,17.68
2017-02-19T06:13:11.393Z,17.67
2017-02-19T06:14:12.227Z,17.67
2017-02-19T06:15:14.059Z,17.67
2017-02-19T06:16:13.649Z,17.66
2017-02-19T06:17:12.416Z,17.67
2017-02-19T06:18:14.088Z,17.67
2017-02-19T06:19:12.564Z,17.70
2017-02-19T06:20:13.229Z,17.66
2017-02-19T06:21:14.230Z,17.66
2017-02-19T06:22:12.825Z,17.66
2017-02-19T06:23:11.427Z,17.65
2017-02-19T06:24:12.906Z,17.67
2017-02-19T06:25:12.509Z,17.68
2017-02-19T06:26:12.411Z,17.68
2017-02-19T06:27:14.317Z,17.69
2017-02-19T06:28:13.661Z,17.70
2017-02-19T06:29:12.355Z,17.68
2017-02-19T06:30:13.714Z,17.72
2017-02-19T06:31:13.411Z,17.66
2017-02-19T06:32:14.071Z,17.66
2017-02-19T06:33:12.550Z,17.65
2017-02-19T06:34:12.516Z,17.66
2017-02-19T06:35:14.128Z,17.66
2017-02-19T06:36:13.845Z,17.65
2017-02-19T06:37:11.389Z,17.65
2017-02-19T06:38:12.178Z,17.66
2017-02-19T06:39:12.270Z,17.66
2017-02-19T06:40:13.177Z,17.66
2017-02-19T06:41:13.169Z,17.65
2017-02-19T06:42:13.705Z,17.65
2017-02-19T06:43:12.285Z,17.65
2017-02-19T06:44:12.450Z,17.65
2017-02-19T06:45:10.331Z,17.65
2017-02-19T06:46:12.463Z,17.65
2017-02-19T06:47:13.170Z,17.65
2017-02-19T06:48:12.797Z,17.65
2017-02-19T06:49:12.575Z,17.65
2017-02-19T06:50:14.586Z,17.65
2017-02-19T06:51:13.161Z,17.65
2017-02-19T06:52:13.830Z,17.65
2017-02-19T06:53:14.054Z,17.69
2017-02-19T06:54:12.575Z,17.65
2017-02-19T06:55:13.150Z,17.66
2017-02-19T06:56:12.884Z,17.66
2017-02-19T06:57:15.223Z,17.65
2017-02-19T06:58:12.680Z,17.64
2017-02-19T06:59:13.029Z,17.65
2017-02-19T07:00:12.601Z,17.65
2017-02-19T07:01:12.327Z,17.65
2017-02-19T07:02:14.301Z,17.65
2017-02-19T07:03:12.994Z,17.65
2017-02-19T07:04:13.681Z,17.65
2017-02-19T07:05:14.248Z,17.66
2017-02-19T07:06:12.984Z,17.65
2017-02-19T07:07:13.114Z,17.65
2017-02-19T07:08:15.364Z,17.65
2017-02-19T07:09:12.972Z,17.66
2017-02-19T07:10:13.665Z,17.66
2017-02-19T07:11:11.743Z,17.66
2017-02-19T07:12:12.847Z,17.65
2017-02-19T07:13:13.753Z,17.65
2017-02-19T07:14:11.746Z,17.65
2017-02-19T07:15:12.793Z,17.65
2017-02-19T07:16:14.350Z,17.65
2017-02-19T07:17:14.009Z,17.66
2017-02-19T07:18:12.655Z,17.65
2017-02-19T07:19:13.331Z,17.65
2017-02-19T07:20:13.946Z,17.65
2017-02-19T07:21:12.487Z,17.65
2017-02-19T07:22:14.148Z,17.65
2017-02-19T07:23:14.546Z,17.65
2017-02-19T07:24:13.556Z,17.65
2017-02-19T07:25:12.401Z,17.64
2017-02-19T07:26:13.043Z,17.64
2017-02-19T07:27:13.070Z,17.64
2017-02-19T07:28:12.301Z,17.65
2017-02-19T07:29:14.576Z,17.64
2017-02-19T07:30:12.587Z,17.65
2017-02-19T07:31:12.143Z,17.65
2017-02-19T07:32:13.030Z,17.66
2017-02-19T07:33:12.035Z,17.65
2017-02-19T07:34:13.271Z,17.66
2017-02-19T07:35:13.264Z,17.66
2017-02-19T07:36:12.904Z,17.66
2017-02-19T07:37:12.475Z,17.65
2017-02-19T07:38:13.467Z,17.66
2017-02-19T07:39:13.137Z,17.67
2017-02-19T07:40:13.775Z,17.67
2017-02-19T07:41:12.359Z,17.67
2017-02-19T07:42:13.940Z,17.66
2017-02-19T07:43:12.477Z,17.67
2017-02-19T07:44:13.383Z,17.67
2017-02-19T07:45:12.966Z,17.67
2017-02-19T07:46:12.730Z,17.67
2017-02-19T07:47:13.517Z,17.68
2017-02-19T07:48:14.479Z,17.68
2017-02-19T07:49:13.045Z,17.67
2017-02-19T07:50:12.579Z,17.70
2017-02-19T07:51:13.328Z,17.67
2017-02-19T07:52:14.977Z,17.66
2017-02-19T07:53:14.257Z,17.67
2017-02-19T07:54:13.654Z,17.71
2017-02-19T07:55:12.555Z,17.67
2017-02-19T07:56:12.338Z,17.68
2017-02-19T07:57:15.055Z,17.67
2017-02-19T07:58:13.947Z,17.68
2017-02-19T07:59:12.455Z,17.70
2017-02-19T08:00:14.568Z,17.77
2017-02-19T08:01:13.086Z,17.72
2017-02-19T08:02:12.697Z,17.70
2017-02-19T08:03:10.698Z,17.70
2017-02-19T08:04:13.425Z,17.88
2017-02-19T08:05:12.970Z,17.76
2017-02-19T08:06:12.573Z,17.73
2017-02-19T08:07:14.307Z,17.72
2017-02-19T08:08:13.148Z,17.72
2017-02-19T08:09:12.777Z,17.73
2017-02-19T08:10:12.825Z,17.38
2017-02-19T08:11:14.029Z,16.51
2017-02-19T08:12:13.619Z,15.35
2017-02-19T08:13:13.870Z,14.76
2017-02-19T08:14:12.799Z,14.38
2017-02-19T08:15:12.378Z,14.01
2017-02-19T08:16:12.969Z,13.74
2017-02-19T08:17:12.642Z,13.53
2017-02-19T08:18:13.493Z,13.29
2017-02-19T08:19:14.179Z,13.21
2017-02-19T08:20:13.705Z,13.05
2017-02-19T08:21:12.358Z,12.95
2017-02-19T08:22:13.026Z,12.88
2017-02-19T08:23:13.717Z,12.80
2017-02-19T08:24:13.577Z,13.39
2017-02-19T08:25:12.555Z,14.12
2017-02-19T08:26:13.302Z,14.77
2017-02-19T08:27:12.048Z,15.20
2017-02-19T08:28:13.319Z,15.57
2017-02-19T08:29:12.841Z,15.84
2017-02-19T08:30:14.876Z,16.11
2017-02-19T08:31:13.516Z,16.31
2017-02-19T08:32:13.477Z,16.46
2017-02-19T08:33:12.507Z,16.60
2017-02-19T08:34:13.601Z,16.72
2017-02-19T08:35:12.175Z,16.83
2017-02-19T08:36:12.856Z,16.93
2017-02-19T08:37:13.443Z,17.01
2017-02-19T08:38:14.016Z,17.07
2017-02-19T08:39:12.855Z,17.14
2017-02-19T08:40:14.557Z,17.20
2017-02-19T08:41:13.554Z,17.25
2017-02-19T08:42:13.619Z,17.31
2017-02-19T08:43:12.869Z,17.35
2017-02-19T08:44:13.958Z,17.39
2017-02-19T08:45:13.818Z,17.44
2017-02-19T08:46:12.349Z,17.46
2017-02-19T08:47:13.085Z,17.51
2017-02-19T08:48:12.909Z,17.55
2017-02-19T08:49:12.882Z,17.59
2017-02-19T08:50:12.864Z,17.60
2017-02-19T08:51:12.569Z,17.62
2017-02-19T08:52:13.356Z,17.63
2017-02-19T08:53:17.474Z,17.64
2017-02-19T08:54:13.064Z,17.64
2017-02-19T08:55:14.147Z,17.67
2017-02-19T08:56:12.958Z,17.63
2017-02-19T08:57:12.634Z,17.65
2017-02-19T08:58:13.678Z,17.64
2017-02-19T08:59:13.355Z,17.64
2017-02-19T09:00:12.939Z,17.65
2017-02-19T09:01:12.524Z,17.67
2017-02-19T09:02:14.216Z,17.69
2017-02-19T09:03:13.719Z,17.69
2017-02-19T09:04:14.516Z,17.68
2017-02-19T09:05:14.056Z,17.65
2017-02-19T09:06:14.546Z,17.67
2017-02-19T09:07:12.333Z,17.70
2017-02-19T09:08:12.958Z,17.72
2017-02-19T09:09:13.729Z,17.75
2017-02-19T09:10:12.310Z,17.77
2017-02-19T09:11:12.875Z,17.79
2017-02-19T09:12:15.548Z,17.82
2017-02-19T09:13:14.853Z,17.85
2017-02-19T09:14:13.191Z,17.86
2017-02-19T09:15:13.202Z,17.88
2017-02-19T09:16:13.747Z,17.88
2017-02-19T09:17:11.648Z,17.88
2017-02-19T09:18:13.398Z,18.43
2017-02-19T09:19:13.327Z,18.50
2017-02-19T09:20:13.876Z,18.11
2017-02-19T09:21:13.534Z,17.97
2017-02-19T09:22:14.152Z,17.93
2017-02-19T09:23:13.713Z,17.93
2017-02-19T09:24:13.223Z,17.92
2017-02-19T09:25:13.839Z,17.98
2017-02-19T09:26:13.386Z,17.92
2017-02-19T09:27:14.770Z,17.88
2017-02-19T09:28:12.518Z,17.42
2017-02-19T09:29:13.200Z,16.75
2017-02-19T09:30:12.774Z,16.21
2017-02-19T09:31:14.503Z,15.94
2017-02-19T09:32:12.394Z,16.18
2017-02-19T09:33:12.896Z,16.47
2017-02-19T09:34:12.995Z,16.71
2017-02-19T09:35:13.734Z,16.92
2017-02-19T09:36:13.796Z,17.09
2017-02-19T09:37:12.931Z,17.21
2017-02-19T09:38:12.905Z,17.30
2017-02-19T09:39:12.596Z,17.36
2017-02-19T09:40:12.742Z,17.40
2017-02-19T09:41:12.617Z,17.44
2017-02-19T09:42:13.730Z,17.48
2017-02-19T09:43:12.655Z,17.51
2017-02-19T09:44:12.265Z,17.57
2017-02-19T09:45:12.478Z,17.54
2017-02-19T09:46:15.105Z,17.55
2017-02-19T09:47:13.728Z,17.57
2017-02-19T09:48:14.464Z,17.58
2017-02-19T09:49:13.036Z,17.57
2017-02-19T09:50:14.692Z,17.59
2017-02-19T09:51:12.910Z,17.60
2017-02-19T09:52:11.836Z,17.60
2017-02-19T09:53:12.662Z,17.60
2017-02-19T09:54:13.299Z,17.60
2017-02-19T09:55:13.903Z,17.61
2017-02-19T09:56:13.235Z,17.61
2017-02-19T09:57:14.396Z,17.61
2017-02-19T09:58:13.849Z,17.62
2017-02-19T09:59:13.565Z,17.62
2017-02-19T10:00:13.038Z,17.62
2017-02-19T10:01:12.788Z,17.62
2017-02-19T10:02:12.391Z,17.61
2017-02-19T10:03:14.107Z,17.62
2017-02-19T10:04:13.044Z,17.61
2017-02-19T10:05:12.558Z,17.62
2017-02-19T10:06:14.636Z,17.61
2017-02-19T10:07:13.182Z,17.66
2017-02-19T10:08:12.930Z,17.62
2017-02-19T10:09:12.650Z,17.62
2017-02-19T10:10:11.760Z,17.63
2017-02-19T10:11:13.448Z,17.62
2017-02-19T10:12:13.112Z,17.63
2017-02-19T10:13:14.058Z,17.63
2017-02-19T10:14:13.671Z,17.62
2017-02-19T10:15:12.285Z,17.62
2017-02-19T10:16:14.202Z,17.63
2017-02-19T10:17:12.410Z,17.63
2017-02-19T10:18:14.369Z,17.64
2017-02-19T10:19:13.019Z,17.64
2017-02-19T10:20:15.147Z,17.64
2017-02-19T10:21:14.714Z,17.64
2017-02-19T10:22:13.249Z,17.64
2017-02-19T10:23:13.738Z,17.71
2017-02-19T10:24:12.209Z,17.68
2017-02-19T10:25:13.758Z,17.70
2017-02-19T10:26:12.602Z,17.66
2017-02-19T10:27:13.269Z,17.65
2017-02-19T10:28:12.347Z,17.66
2017-02-19T10:29:13.049Z,17.66
2017-02-19T10:30:12.677Z,17.66
2017-02-19T10:31:12.244Z,17.67
2017-02-19T10:32:13.161Z,17.66
2017-02-19T10:33:12.820Z,17.67
2017-02-19T10:34:12.946Z,17.66
2017-02-19T10:35:13.884Z,17.66
2017-02-19T10:36:11.448Z,17.66
2017-02-19T10:37:14.221Z,17.67
2017-02-19T10:38:15.886Z,17.66
2017-02-19T10:39:12.519Z,17.66
2017-02-19T10:40:13.092Z,17.66
2017-02-19T10:41:12.744Z,17.66
2017-02-19T10:42:10.918Z,17.66
2017-02-19T10:43:12.660Z,18.20
2017-02-19T10:44:12.365Z,17.73
2017-02-19T10:45:14.014Z,17.70
2017-02-19T10:46:13.431Z,17.69
2017-02-19T10:47:15.084Z,17.68
2017-02-19T10:48:12.586Z,17.66
2017-02-19T10:49:12.968Z,17.71
2017-02-19T10:50:12.547Z,17.67
2017-02-19T10:51:12.429Z,17.68
2017-02-19T10:52:13.136Z,17.67
2017-02-19T10:53:14.072Z,17.68
2017-02-19T10:54:12.580Z,17.68
2017-02-19T10:55:12.571Z,17.68
2017-02-19T10:56:12.359Z,17.68
2017-02-19T10:57:13.260Z,17.67
2017-02-19T10:58:12.579Z,17.68
2017-02-19T10:59:11.550Z,17.67
2017-02-19T11:00:10.713Z,17.66
2017-02-19T11:01:12.582Z,17.85
2017-02-19T11:02:13.834Z,17.74
2017-02-19T11:03:12.931Z,17.72
2017-02-19T11:04:12.500Z,17.71
2017-02-19T11:05:12.956Z,17.70
2017-02-19T11:06:13.481Z,17.70
2017-02-19T11:07:14.100Z,17.71
2017-02-19T11:08:14.708Z,17.71
2017-02-19T11:09:12.732Z,17.72
2017-02-19T11:10:12.296Z,17.72
2017-02-19T11:11:12.877Z,17.71
2017-02-19T11:12:13.015Z,17.72
2017-02-19T11:13:13.771Z,17.73
2017-02-19T11:14:13.522Z,17.73
2017-02-19T11:15:13.062Z,17.73
2017-02-19T11:16:12.679Z,17.73
2017-02-19T11:17:12.937Z,17.72
2017-02-19T11:18:11.900Z,17.73
2017-02-19T11:19:11.945Z,17.74
2017-02-19T11:20:12.842Z,17.74
2017-02-19T11:21:14.292Z,17.74
2017-02-19T11:22:13.047Z,17.74
2017-02-19T11:23:13.620Z,17.74
2017-02-19T11:24:12.574Z,17.75
2017-02-19T11:25:14.138Z,17.74
2017-02-19T11:26:13.301Z,17.75
2017-02-19T11:27:13.019Z,17.75
2017-02-19T11:28:13.658Z,17.75
2017-02-19T11:29:12.299Z,17.75
2017-02-19T11:30:12.995Z,17.75
2017-02-19T11:31:12.489Z,17.76
2017-02-19T11:32:13.843Z,17.80
2017-02-19T11:33:13.205Z,17.79
2017-02-19T11:34:13.709Z,17.76
2017-02-19T11:35:13.478Z,17.76
2017-02-19T11:36:13.557Z,17.75
2017-02-19T11:37:13.154Z,17.69
2017-02-19T11:38:13.333Z,17.63
2017-02-19T11:39:13.270Z,17.61
2017-02-19T11:40:12.898Z,17.62
2017-02-19T11:41:12.425Z,17.63
2017-02-19T11:42:14.128Z,17.64
2017-02-19T11:43:10.861Z,17.65
2017-02-19T11:44:13.755Z,17.67
2017-02-19T11:45:12.814Z,17.69
2017-02-19T11:46:12.412Z,17.70
2017-02-19T11:47:13.679Z,17.70
2017-02-19T11:48:12.559Z,17.71
2017-02-19T11:49:12.155Z,17.72
2017-02-19T11:50:12.948Z,17.72
2017-02-19T11:51:14.567Z,17.72
2017-02-19T11:52:09.840Z,17.72
2017-02-19T11:53:12.517Z,17.73
2017-02-19T11:54:13.050Z,17.74
2017-02-19T11:55:15.527Z,17.73
2017-02-19T11:56:12.574Z,17.73
2017-02-19T11:57:13.651Z,17.73
2017-02-19T11:58:12.249Z,17.73
2017-02-19T11:59:15.456Z,17.73
2017-02-19T12:00:15.054Z,17.74
2017-02-19T12:01:15.046Z,17.73
2017-02-19T12:02:13.822Z,17.76
2017-02-19T12:03:15.731Z,17.71
2017-02-19T12:04:13.329Z,17.71
2017-02-19T12:05:13.989Z,17.72
2017-02-19T12:06:12.665Z,17.72
2017-02-19T12:07:11.785Z,17.72
2017-02-19T12:08:12.444Z,18.26
2017-02-19T12:09:12.534Z,18.31
2017-02-19T12:10:15.309Z,18.34
2017-02-19T12:11:12.373Z,18.03
2017-02-19T12:12:13.017Z,17.85
2017-02-19T12:13:10.181Z,17.79
2017-02-19T12:14:14.124Z,17.78
2017-02-19T12:15:12.636Z,17.76
2017-02-19T12:16:12.654Z,17.76
2017-02-19T12:17:12.494Z,17.76
2017-02-19T12:18:13.335Z,17.75
2017-02-19T12:19:13.014Z,17.76
2017-02-19T12:20:12.520Z,17.77
2017-02-19T12:21:15.049Z,17.76
2017-02-19T12:22:13.725Z,17.76
2017-02-19T12:23:12.336Z,17.77
2017-02-19T12:24:13.989Z,17.75
2017-02-19T12:25:12.562Z,17.76
2017-02-19T12:26:12.232Z,17.76
2017-02-19T12:27:12.341Z,17.77
2017-02-19T12:28:12.353Z,17.79
2017-02-19T12:29:13.293Z,17.79
2017-02-19T12:30:12.738Z,17.77
2017-02-19T12:31:12.812Z,17.78
2017-02-19T12:32:13.545Z,17.76
2017-02-19T12:33:14.365Z,17.76
2017-02-19T12:34:13.030Z,17.74
2017-02-19T12:35:13.256Z,17.74
2017-02-19T12:36:11.168Z,17.72
2017-02-19T12:37:12.981Z,17.71
2017-02-19T12:38:12.624Z,17.71
2017-02-19T12:39:11.796Z,17.73
2017-02-19T12:40:12.442Z,17.73
2017-02-19T12:41:14.996Z,17.74
2017-02-19T12:42:12.942Z,17.76
2017-02-19T12:43:12.682Z,17.77
2017-02-19T12:44:12.332Z,17.77
2017-02-19T12:45:14.075Z,17.78
2017-02-19T12:46:12.771Z,17.79
2017-02-19T12:47:12.357Z,17.79
2017-02-19T12:48:12.956Z,17.79
2017-02-19T12:49:13.033Z,17.79
2017-02-19T12:50:12.837Z,17.80
2017-02-19T12:51:12.429Z,17.81
2017-02-19T12:52:12.992Z,17.82